EGCNEGNJ

Guest
Details From EGCN - Doncaster-sheffield (ex Raf Finningley
To EGNJ - Humberside
Flight Number -
Tags Routegen Generated
Created
Modified
Stats Distance 29 nm / 54 km
Max Altitude 100 ft / 30 m
Waypoints 5
Social Downloads 8
Likes 0
Share VATSIM

Download

Looking for another format? Having issues loading an existing format? Contact us
Advertisement - Login to hide

Notes

Departing runway 1 EGCN. Arriving runway 2 EGNJ.

Route

EGCN +53.53_+000.97 +53.52_+000.69 +53.50_+000.40 EGNJ

ID Type Via Altitude Latitude Longitude Leg Dist Tot Dist Heading (true) Name
O EGCN APT - 0 ft / 0 m 53.46294˚ -1.01075˚ - 0 nm - -
+53.53_+000.97 LATLON - 100 ft / 30 m 53.53189˚ -0.97382˚ 4 nm 4 nm 18° / 18° -
+53.52_+000.69 LATLON - 100 ft / 30 m 53.51513˚ -0.68855˚ 10 nm 14 nm 96° / 96° -
+53.50_+000.40 LATLON - 100 ft / 30 m 53.49838˚ -0.40327˚ 10 nm 24 nm 96° / 96° -
O EGNJ APT - 0 ft / 0 m 53.56533˚ -0.35706˚ 4 nm 29 nm 22° / 22° -

Altitude Profile

Advertisement - Login to hide

EGCN

Details ICAO EGCN (DSA)
Name Doncaster Sheffield
Region United Kingdom
Timezone Europe/London (UTC+0.0)
Stats Elevation 55 ft / 17 m (AMSL)
Location 53.474649° -1.004474°
Runways 1
Magnetic Variation 0.996° W

METAR

EGCN 180120Z 29007KT CAVOK 03/01 Q1024

Decode

TAF

TAF EGCN 172301Z 1800/1824 29008KT CAVOK PROB30 TEMPO 1818/1824 4000 BR

Decode

Departure Runways

ID Width Length Bearing (true) Bearing (mag) Surface Threshold Offset Overrun Length
02 197 ft / 60 m 8,975 ft / 2,736 m 17.62° 18.62° Asphalt 486 ft / 148 m 13 ft / 4 m
20 197 ft / 60 m 8,975 ft / 2,736 m 197.63° 198.63° Asphalt 0 ft / 0 m 0 ft / 0 m

EGNJ

Details ICAO EGNJ (HUY)
Name Humberside
Region United Kingdom
Timezone Europe/London (UTC+0.0)
Stats Elevation 121 ft / 37 m (AMSL)
Location 53.575453° -0.348192°
Runways 2
Magnetic Variation 0.765° W

METAR

EGNJ 180120Z AUTO 28011KT 9999 NCD 04/01 Q1022

Decode

TAF

Not found

Destination Runways

ID Width Length Bearing (true) Bearing (mag) Surface Threshold Offset Overrun Length
03 148 ft / 45 m 7,205 ft / 2,196 m 22.32° 23.08° Asphalt 0 ft / 0 m 0 ft / 0 m
08 98 ft / 30 m 3,421 ft / 1,043 m 82.43° 83.19° Asphalt 0 ft / 0 m 0 ft / 0 m
21 148 ft / 45 m 7,205 ft / 2,196 m 202.33° 203.09° Asphalt 814 ft / 248 m 0 ft / 0 m
26 98 ft / 30 m 3,421 ft / 1,043 m 262.44° 263.20° Asphalt 617 ft / 188 m 0 ft / 0 m

Approach Navaids

Runway Type Ident Frequency Range Bearing (true) Bearing (mag) Slope Elevation
21 Localiser IHS 108.75 MHz 18 nm / 33 km 202.33° 203.09° - 121 ft / 37 m (AMSL)
21 Glidescope IHS 108.75 MHz 10 nm / 19 km 202.33° 203.09° 3.00° 121 ft / 37 m (AMSL)
21 DME IHS 108.75 MHz 18 nm / 33 km - - - 114 ft / 35 m (AMSL)

Popular Alternatives